Pagina principale
METAR-TAF:

METAR-TAF

Aeroporti :

Piattaforma petrolifera

P11-b, Paesi Bassi

latitudine: 52-21-36N, longitudine: 3-20-30E, altezza: 24 m

Osservazione

Il bollettino è stato emesso 19 minuti fa, alle 02:55 UTC
Vento 10 kt da ovest, variando fra sud/sud-ovest e nord
Temperature 7°C
Umidità 66%
Pressione 1022 hPa
Visibilità 10 km o più

METAR: EHPG 240255Z AUTO 27010KT 200V350 9999 NSC 07/01 Q1022

Ora: 04:14 (03:14 UTC)


TAF: mancante

Osservazioni e previsioni meteorologiche di più di 4000 aeroporti (messaggi METAR e TAF).

Le stazioni disponibili sono rappresentate dai dischi gialli e rossi sulla carta.

Puntare il mouse per vedere il nome della stazione.

Clicca sopra per visualizzare le osservazioni e previsioni meteorologiche.

Per cambiare la mappa : fare clic sui pulsanti verdi con una croce nera per ingrandire, il pulsante verde con un trattino per diminuire, o sulla freccia verde per le mappe adiacenti.


METAR-TAF: